Ball, North Carolina
Current Conditions -  °F | °C
As of 4:35 AM on Tuesday 21 Oct 2014 (Local Time) from KGEV Reporting Station
Scattered Clouds Scattered Clouds  
Wind Chill: 51°   Ceiling: Unl
Heat Index: 51°   Visibility: 10mi
Dew Point: 42°   Wind: 12mph
Humidity: 73%   Direction: 290°WNW
Pressure: 29.95"   Gusts: 25mph
Location:  36.524°N, 81.538°W
Report Text: KGEV 210835Z AUTO 29010G22KT 10SM SCT018 SCT025 11/06 A2995 RMK AO2 T01050058
Loading
Personal Weather Stations






























Interactive Weather Map
Tropical Storm Tracking
New forecast layout! Learn more

10-Day Weather Forecast

Advertisements
Track Severe Weather on mobile